createdAt,value
2019-01-20T00:00:33.940Z,91.10
2019-01-20T00:03:03.048Z,91.30
2019-01-20T00:05:32.314Z,91.40
2019-01-20T00:08:01.519Z,91.30
2019-01-20T00:10:31.878Z,91.30
2019-01-20T00:13:01.611Z,91.30
2019-01-20T00:15:33.487Z,91.00
2019-01-20T00:18:04.143Z,90.80
2019-01-20T00:20:33.580Z,90.60
2019-01-20T00:23:04.588Z,90.60
2019-01-20T00:25:34.461Z,90.60
2019-01-20T00:28:03.666Z,90.50
2019-01-20T00:30:33.215Z,90.30
2019-01-20T00:33:02.447Z,90.30
2019-01-20T00:35:31.625Z,90.30
2019-01-20T00:38:01.172Z,90.30
2019-01-20T00:40:30.406Z,90.30
2019-01-20T00:42:59.584Z,90.30
2019-01-20T00:45:29.161Z,90.20
2019-01-20T00:47:58.433Z,90.20
2019-01-20T00:50:27.599Z,90.10
2019-01-20T00:52:57.071Z,90.20
2019-01-20T00:55:26.264Z,90.40
2019-01-20T00:57:55.464Z,90.30
2019-01-20T01:00:28.244Z,90.20
2019-01-20T01:02:57.358Z,90.00
2019-01-20T01:05:26.598Z,90.00
2019-01-20T01:07:55.759Z,90.20
2019-01-20T01:10:24.844Z,90.30
2019-01-20T01:12:54.448Z,90.30
2019-01-20T01:15:23.687Z,90.20
2019-01-20T01:17:52.939Z,90.10
2019-01-20T01:20:22.133Z,90.00
2019-01-20T01:22:51.313Z,90.00
2019-01-20T01:25:33.512Z,90.00
2019-01-20T01:28:02.743Z,89.80
2019-01-20T01:30:31.876Z,89.80
2019-01-20T01:33:00.983Z,89.30
2019-01-20T01:35:30.102Z,88.80
2019-01-20T01:41:44.914Z,88.10
2019-01-20T01:44:15.217Z,87.80
2019-01-20T01:46:44.335Z,87.60
2019-01-20T01:49:13.524Z,87.50
2019-01-20T01:51:42.709Z,87.60
2019-01-20T01:54:11.930Z,87.40
2019-01-20T01:56:41.019Z,87.80
2019-01-20T01:59:10.186Z,87.70
2019-01-20T02:01:40.794Z,87.80
2019-01-20T02:04:09.957Z,87.60
2019-01-20T02:06:39.163Z,87.30
2019-01-20T02:09:08.993Z,87.60
2019-01-20T02:11:38.154Z,87.80
2019-01-20T02:14:07.247Z,87.60
2019-01-20T02:16:36.458Z,87.70
2019-01-20T02:19:05.642Z,87.60
2019-01-20T02:21:34.729Z,87.50
2019-01-20T02:24:03.922Z,87.70
2019-01-20T02:26:33.079Z,88.10
2019-01-20T02:29:02.205Z,88.00
2019-01-20T02:31:31.730Z,88.20
2019-01-20T02:34:01.000Z,88.60
2019-01-20T02:36:30.270Z,88.40
2019-01-20T02:38:59.487Z,88.20
2019-01-20T02:41:28.669Z,88.10
2019-01-20T02:43:57.828Z,88.30
2019-01-20T02:46:27.018Z,88.10
2019-01-20T02:48:56.205Z,88.00
2019-01-20T02:51:25.411Z,87.80
2019-01-20T02:53:54.626Z,88.30
2019-01-20T02:56:23.825Z,88.30
2019-01-20T02:58:53.045Z,88.10
2019-01-20T03:01:22.213Z,87.70
2019-01-20T03:03:51.405Z,87.70
2019-01-20T03:06:20.932Z,87.80
2019-01-20T03:08:50.020Z,88.50
2019-01-20T03:11:19.193Z,88.70
2019-01-20T03:13:49.343Z,88.60
2019-01-20T03:16:18.520Z,88.80
2019-01-20T03:18:47.919Z,88.70
2019-01-20T03:21:17.095Z,88.80
2019-01-20T03:23:46.268Z,89.00
2019-01-20T03:26:15.486Z,89.40
2019-01-20T03:28:45.171Z,89.30
2019-01-20T03:31:14.368Z,89.10
2019-01-20T03:33:43.470Z,88.80
2019-01-20T03:36:12.668Z,89.20
2019-01-20T03:38:41.847Z,89.00
2019-01-20T03:41:11.020Z,88.70
2019-01-20T03:43:40.232Z,89.00
2019-01-20T03:46:09.391Z,88.90
2019-01-20T03:48:38.547Z,88.80
2019-01-20T03:51:08.619Z,88.80
2019-01-20T03:53:38.228Z,88.60
2019-01-20T03:56:07.416Z,88.50
2019-01-20T03:58:36.584Z,88.60
2019-01-20T04:01:05.762Z,88.20
2019-01-20T04:03:34.956Z,87.40
2019-01-20T04:06:04.140Z,88.20
2019-01-20T04:08:33.226Z,87.20
2019-01-20T04:11:02.412Z,87.30
2019-01-20T04:13:31.583Z,86.90
2019-01-20T04:16:01.749Z,86.60
2019-01-20T04:18:30.944Z,86.90
2019-01-20T04:21:00.120Z,86.70
2019-01-20T04:23:29.343Z,86.50
2019-01-20T04:25:58.521Z,86.60
2019-01-20T04:28:27.710Z,86.60
2019-01-20T04:30:56.938Z,86.20
2019-01-20T04:33:26.109Z,86.40
2019-01-20T04:35:55.262Z,86.40
2019-01-20T04:38:24.458Z,86.70
2019-01-20T04:40:53.555Z,86.30
2019-01-20T04:43:23.382Z,86.30
2019-01-20T04:45:52.534Z,86.60
2019-01-20T04:48:21.715Z,86.90
2019-01-20T04:50:50.903Z,87.20
2019-01-20T04:53:20.067Z,87.20
2019-01-20T04:55:49.232Z,86.70
2019-01-20T04:58:18.758Z,86.60
2019-01-20T05:00:47.911Z,86.40
2019-01-20T05:03:17.079Z,86.20
2019-01-20T05:05:46.244Z,86.20
2019-01-20T05:08:15.403Z,86.00
2019-01-20T05:10:44.530Z,85.30
2019-01-20T05:13:13.702Z,85.20
2019-01-20T05:15:42.896Z,85.50
2019-01-20T05:18:12.064Z,86.00
2019-01-20T05:20:41.172Z,85.90
2019-01-20T05:23:10.384Z,85.90
2019-01-20T05:25:39.540Z,85.60
2019-01-20T05:28:08.753Z,86.00
2019-01-20T05:30:37.859Z,85.90
2019-01-20T05:33:07.336Z,85.60
2019-01-20T05:35:36.547Z,85.70
2019-01-20T05:38:05.749Z,86.50
2019-01-20T05:40:34.912Z,86.90
2019-01-20T05:43:04.185Z,86.80
2019-01-20T05:45:33.372Z,86.20
2019-01-20T05:48:02.582Z,86.10
2019-01-20T05:50:31.746Z,85.90
2019-01-20T05:53:00.935Z,85.90
2019-01-20T05:55:30.147Z,85.80
2019-01-20T05:57:59.519Z,86.00
2019-01-20T06:00:30.902Z,86.40
2019-01-20T06:03:00.123Z,86.10
2019-01-20T06:05:29.314Z,86.40
2019-01-20T06:07:58.539Z,86.00
2019-01-20T06:10:27.749Z,86.30
2019-01-20T06:12:56.937Z,86.50
2019-01-20T06:15:26.138Z,86.00
2019-01-20T06:17:55.248Z,85.90
2019-01-20T06:20:24.482Z,85.20
2019-01-20T06:22:53.651Z,85.30
2019-01-20T06:25:22.824Z,85.40
2019-01-20T06:27:52.051Z,85.90
2019-01-20T06:30:23.766Z,86.40
2019-01-20T06:32:52.870Z,86.90
2019-01-20T06:35:22.102Z,87.10
2019-01-20T06:37:51.301Z,87.50
2019-01-20T06:40:20.531Z,87.80
2019-01-20T06:42:49.782Z,87.60
2019-01-20T06:45:19.002Z,87.60
2019-01-20T06:47:48.201Z,87.50
2019-01-20T06:50:17.477Z,87.40
2019-01-20T06:52:46.676Z,87.30
2019-01-20T06:55:15.878Z,86.50
2019-01-20T06:57:45.484Z,85.70
2019-01-20T07:00:19.555Z,86.40
2019-01-20T07:02:48.741Z,87.00
2019-01-20T07:05:17.941Z,87.40
2019-01-20T07:07:47.140Z,87.40
2019-01-20T07:10:16.945Z,87.30
2019-01-20T07:12:46.166Z,86.80
2019-01-20T07:15:20.246Z,87.00
2019-01-20T07:17:49.427Z,86.90
2019-01-20T07:20:18.646Z,86.60
2019-01-20T07:22:47.856Z,86.70
2019-01-20T07:25:17.140Z,86.80
2019-01-20T07:27:46.389Z,86.70
2019-01-20T07:30:17.664Z,86.60
2019-01-20T07:32:46.868Z,86.80
2019-01-20T07:35:16.016Z,86.40
2019-01-20T07:37:45.782Z,87.00
2019-01-20T07:40:16.027Z,86.10
2019-01-20T07:42:45.227Z,86.20
2019-01-20T07:45:15.195Z,86.20
2019-01-20T07:47:44.388Z,86.00
2019-01-20T07:50:18.357Z,85.80
2019-01-20T07:52:47.569Z,85.70
2019-01-20T07:55:16.775Z,84.60
2019-01-20T07:57:45.978Z,84.90
2019-01-20T08:00:17.126Z,84.80
2019-01-20T08:02:46.370Z,84.90
2019-01-20T08:05:15.560Z,85.20
2019-01-20T08:07:44.784Z,85.30
2019-01-20T08:10:16.716Z,85.20
2019-01-20T08:12:45.938Z,85.10
2019-01-20T08:15:15.346Z,84.10
2019-01-20T08:17:44.919Z,83.70
2019-01-20T08:20:15.994Z,83.70
2019-01-20T08:22:45.197Z,82.50
2019-01-20T08:25:16.432Z,81.70
2019-01-20T08:27:45.635Z,80.00
2019-01-20T08:30:16.969Z,79.60
2019-01-20T08:32:48.578Z,79.10
2019-01-20T08:35:17.775Z,79.00
2019-01-20T08:37:46.991Z,77.70
2019-01-20T08:40:18.684Z,77.70
2019-01-20T08:42:47.923Z,77.10
2019-01-20T08:45:38.433Z,75.50
2019-01-20T08:48:13.190Z,75.80
2019-01-20T08:50:42.403Z,74.80
2019-01-20T08:53:11.683Z,75.30
2019-01-20T08:55:41.388Z,74.50
2019-01-20T08:58:11.281Z,72.70
2019-01-20T09:00:40.696Z,72.80
2019-01-20T09:03:10.043Z,72.10
2019-01-20T09:05:40.703Z,71.70
2019-01-20T09:08:10.067Z,71.90
2019-01-20T09:10:39.374Z,71.80
2019-01-20T09:13:09.782Z,70.70
2019-01-20T09:15:39.100Z,70.10
2019-01-20T09:18:08.322Z,69.60
2019-01-20T09:20:37.581Z,69.90
2019-01-20T09:23:06.823Z,71.10
2019-01-20T09:25:36.656Z,70.60
2019-01-20T09:28:08.152Z,71.00
2019-01-20T09:30:37.379Z,70.10
2019-01-20T09:33:06.585Z,69.40
2019-01-20T09:35:35.856Z,68.60
2019-01-20T09:38:05.957Z,67.20
2019-01-20T09:40:35.166Z,67.70
2019-01-20T09:43:04.671Z,66.50
2019-01-20T09:45:34.819Z,66.50
2019-01-20T09:48:04.290Z,63.80
2019-01-20T09:50:33.552Z,64.30
2019-01-20T09:53:02.782Z,63.60
2019-01-20T09:55:33.635Z,63.70
2019-01-20T09:58:03.167Z,63.20
2019-01-20T10:00:32.874Z,61.90
2019-01-20T10:03:02.299Z,62.40
2019-01-20T10:05:31.543Z,61.80
2019-01-20T10:08:00.797Z,61.50
2019-01-20T10:10:29.988Z,61.50
2019-01-20T10:12:59.188Z,61.30
2019-01-20T10:15:28.786Z,61.50
2019-01-20T10:17:57.993Z,62.20
2019-01-20T10:20:31.854Z,62.10
2019-01-20T10:23:01.066Z,61.50
2019-01-20T10:25:30.689Z,62.20
2019-01-20T10:27:59.957Z,62.20
2019-01-20T10:30:31.216Z,62.90
2019-01-20T10:33:00.466Z,63.30
2019-01-20T10:35:34.033Z,63.40
2019-01-20T10:38:05.687Z,64.50
2019-01-20T10:40:36.101Z,65.50
2019-01-20T10:43:05.378Z,65.60
2019-01-20T10:45:34.641Z,66.40
2019-01-20T10:48:03.892Z,67.00
2019-01-20T10:50:33.721Z,66.60
2019-01-20T10:53:02.913Z,66.40
2019-01-20T10:55:32.610Z,67.90
2019-01-20T10:58:03.568Z,66.80
2019-01-20T11:00:36.336Z,64.20
2019-01-20T11:03:05.921Z,62.20
2019-01-20T11:05:35.158Z,59.80
2019-01-20T11:08:04.668Z,59.70
2019-01-20T11:10:34.648Z,58.70
2019-01-20T11:13:07.652Z,57.00
2019-01-20T11:15:36.860Z,57.80
2019-01-20T11:18:06.146Z,55.90
2019-01-20T11:20:36.610Z,53.30
2019-01-20T11:23:05.979Z,52.90
2019-01-20T11:25:38.164Z,51.10
2019-01-20T11:28:07.452Z,51.10
2019-01-20T11:30:36.685Z,51.30
2019-01-20T11:33:06.224Z,50.50
2019-01-20T11:35:36.866Z,47.70
2019-01-20T11:38:06.059Z,49.70
2019-01-20T11:40:35.291Z,49.00
2019-01-20T11:43:04.547Z,47.00
2019-01-20T11:45:35.816Z,46.40
2019-01-20T11:48:17.593Z,46.30
2019-01-20T11:50:48.085Z,47.00
2019-01-20T11:53:17.389Z,45.40
2019-01-20T11:55:46.620Z,45.80
2019-01-20T11:58:17.502Z,44.80
2019-01-20T12:03:55.959Z,44.40
2019-01-20T12:06:25.205Z,43.90
2019-01-20T12:08:54.477Z,45.10
2019-01-20T12:11:23.781Z,46.20
2019-01-20T12:13:53.391Z,46.60
2019-01-20T12:16:22.614Z,46.10
2019-01-20T12:18:52.060Z,45.90
2019-01-20T12:21:21.354Z,45.30
2019-01-20T12:23:51.648Z,46.90
2019-01-20T12:26:20.906Z,48.70
2019-01-20T12:28:50.164Z,49.60
2019-01-20T12:31:19.457Z,49.70
2019-01-20T12:33:48.883Z,50.40
2019-01-20T12:36:18.086Z,50.50
2019-01-20T12:38:47.342Z,51.10
2019-01-20T12:41:16.714Z,51.70
2019-01-20T12:43:46.560Z,51.40
2019-01-20T12:46:17.914Z,51.00
2019-01-20T12:48:47.145Z,52.30
2019-01-20T12:51:16.413Z,52.80
2019-01-20T12:53:46.828Z,53.00
2019-01-20T12:56:16.027Z,53.20
2019-01-20T12:58:46.749Z,53.50
2019-01-20T13:01:15.977Z,54.40
2019-01-20T13:03:45.246Z,54.80
2019-01-20T13:06:14.478Z,54.10
2019-01-20T13:08:43.704Z,53.80
2019-01-20T13:11:12.981Z,54.60
2019-01-20T13:13:42.269Z,54.10
2019-01-20T13:16:11.554Z,55.40
2019-01-20T13:18:41.224Z,56.00
2019-01-20T13:21:10.815Z,56.90
2019-01-20T13:23:40.125Z,57.40
2019-01-20T13:26:09.418Z,58.00
2019-01-20T13:28:38.674Z,58.10
2019-01-20T13:31:07.884Z,59.00
2019-01-20T13:33:37.329Z,58.40
2019-01-20T13:36:07.840Z,58.50
2019-01-20T13:38:37.088Z,58.90
2019-01-20T13:41:19.602Z,59.20
2019-01-20T13:43:49.311Z,60.00
2019-01-20T13:46:19.417Z,60.90
2019-01-20T13:48:48.851Z,61.30
2019-01-20T13:51:18.242Z,61.80
2019-01-20T13:53:47.482Z,62.90
2019-01-20T13:56:17.097Z,62.20
2019-01-20T13:58:46.419Z,63.00
2019-01-20T14:01:18.388Z,63.80
2019-01-20T14:03:47.838Z,64.30
2019-01-20T14:06:17.016Z,64.60
2019-01-20T14:08:46.252Z,65.10
2019-01-20T14:11:15.493Z,65.80
2019-01-20T14:13:47.002Z,66.30
2019-01-20T14:16:16.280Z,66.00
2019-01-20T14:18:50.257Z,66.00
2019-01-20T14:21:19.521Z,66.40
2019-01-20T14:23:49.340Z,66.20
2019-01-20T14:26:20.000Z,66.20
2019-01-20T14:28:49.260Z,66.20
2019-01-20T14:31:18.463Z,66.10
2019-01-20T14:33:47.679Z,66.60
2019-01-20T14:36:18.272Z,66.60
2019-01-20T14:38:47.450Z,67.20
2019-01-20T14:41:16.669Z,67.70
2019-01-20T14:43:45.949Z,68.30
2019-01-20T14:46:15.230Z,68.30
2019-01-20T14:48:45.768Z,68.80
2019-01-20T14:51:16.605Z,69.80
2019-01-20T14:53:46.959Z,70.10
2019-01-20T14:56:16.223Z,70.70
2019-01-20T14:58:48.183Z,71.50
2019-01-20T15:01:17.533Z,71.60
2019-01-20T15:03:46.884Z,72.60
2019-01-20T15:06:16.931Z,72.60
2019-01-20T15:08:46.184Z,73.00
2019-01-20T15:11:15.447Z,73.50
2019-01-20T15:13:44.841Z,73.80
2019-01-20T15:16:14.136Z,74.70
2019-01-20T15:18:43.449Z,75.10
2019-01-20T15:21:12.660Z,75.50
2019-01-20T15:23:41.921Z,76.00
2019-01-20T15:26:11.503Z,75.60
2019-01-20T15:28:41.361Z,75.30
2019-01-20T15:31:10.582Z,75.10
2019-01-20T15:33:39.832Z,75.80
2019-01-20T15:36:09.876Z,76.20
2019-01-20T15:38:39.116Z,77.50
2019-01-20T15:41:08.360Z,77.20
2019-01-20T15:43:37.658Z,77.30
2019-01-20T15:46:06.919Z,77.90
2019-01-20T15:48:36.128Z,78.30
2019-01-20T15:51:05.510Z,78.40
2019-01-20T15:53:34.757Z,79.10
2019-01-20T15:56:04.205Z,78.80
2019-01-20T15:58:33.435Z,78.40
2019-01-20T16:01:03.026Z,77.90
2019-01-20T16:03:33.295Z,77.80
2019-01-20T16:06:02.563Z,78.40
2019-01-20T16:08:31.802Z,79.10
2019-01-20T16:11:01.100Z,79.50
2019-01-20T16:13:30.399Z,79.50
2019-01-20T16:16:00.332Z,78.90
2019-01-20T16:18:29.971Z,78.80
2019-01-20T16:21:01.392Z,79.40
2019-01-20T16:23:30.738Z,78.90
2019-01-20T16:26:00.003Z,78.80
2019-01-20T16:28:31.372Z,79.30
2019-01-20T16:31:00.638Z,79.70
2019-01-20T16:33:29.871Z,80.00
2019-01-20T16:35:59.162Z,80.40
2019-01-20T16:38:28.479Z,81.30
2019-01-20T16:40:58.991Z,81.30
2019-01-20T16:43:28.389Z,81.30
2019-01-20T16:45:57.705Z,81.90
2019-01-20T16:48:27.436Z,82.20
2019-01-20T16:50:59.077Z,82.10
2019-01-20T16:53:28.478Z,82.30
2019-01-20T16:55:58.198Z,82.40
2019-01-20T16:58:27.479Z,83.00
2019-01-20T17:00:56.760Z,83.10
2019-01-20T17:03:26.351Z,83.50
2019-01-20T17:05:55.605Z,83.20
2019-01-20T17:08:25.721Z,84.30
2019-01-20T17:10:56.105Z,83.70
2019-01-20T17:13:25.635Z,83.80
2019-01-20T17:15:54.879Z,84.30
2019-01-20T17:18:24.167Z,84.10
2019-01-20T17:20:53.452Z,84.10
2019-01-20T17:23:22.682Z,84.00
2019-01-20T17:25:51.962Z,84.90
2019-01-20T17:28:21.239Z,85.50
2019-01-20T17:30:50.472Z,85.80
2019-01-20T17:33:19.819Z,85.90
2019-01-20T17:35:49.953Z,85.50
2019-01-20T17:38:19.214Z,85.50
2019-01-20T17:40:49.314Z,85.70
2019-01-20T17:43:18.569Z,86.00
2019-01-20T17:45:50.038Z,86.50
2019-01-20T17:48:20.057Z,86.90
2019-01-20T17:50:49.954Z,86.90
2019-01-20T17:53:19.230Z,86.50
2019-01-20T17:55:48.559Z,86.30
2019-01-20T17:58:18.514Z,86.00
2019-01-20T18:00:50.977Z,85.80
2019-01-20T18:03:20.251Z,86.00
2019-01-20T18:05:49.849Z,85.30
2019-01-20T18:08:19.585Z,85.20
2019-01-20T18:10:48.917Z,84.90
2019-01-20T18:13:18.366Z,84.80
2019-01-20T18:15:54.068Z,84.70
2019-01-20T18:18:18.710Z,84.60
2019-01-20T18:20:48.003Z,84.40
2019-01-20T18:23:17.884Z,85.00
2019-01-20T18:25:47.697Z,84.80
2019-01-20T18:28:17.080Z,84.30
2019-01-20T18:30:46.699Z,84.00
2019-01-20T18:33:16.211Z,83.80
2019-01-20T18:35:45.756Z,83.50
2019-01-20T18:38:15.065Z,83.40
2019-01-20T18:40:44.316Z,84.10
2019-01-20T18:43:13.521Z,82.80
2019-01-20T18:45:43.142Z,83.00
2019-01-20T18:48:12.433Z,83.20
2019-01-20T18:50:41.670Z,83.20
2019-01-20T18:53:10.906Z,83.50
2019-01-20T18:55:40.108Z,83.40
2019-01-20T18:58:09.379Z,83.90
2019-01-20T19:00:44.463Z,83.90
2019-01-20T19:03:13.721Z,84.10
2019-01-20T19:05:42.995Z,83.40
2019-01-20T19:08:12.416Z,82.40
2019-01-20T19:10:41.687Z,82.80
2019-01-20T19:13:12.765Z,83.20
2019-01-20T19:15:42.229Z,83.70
2019-01-20T19:18:18.711Z,84.50
2019-01-20T19:20:43.146Z,84.40
2019-01-20T19:23:13.766Z,84.70
2019-01-20T19:25:43.100Z,84.80
2019-01-20T19:28:12.633Z,85.00
2019-01-20T19:30:44.417Z,85.00
2019-01-20T19:33:13.793Z,84.90
2019-01-20T19:35:43.005Z,84.90
2019-01-20T19:38:12.264Z,84.70
2019-01-20T19:40:41.496Z,85.50
2019-01-20T19:43:10.809Z,85.30
2019-01-20T19:45:40.463Z,85.60
2019-01-20T19:48:15.691Z,85.60
2019-01-20T19:50:44.141Z,85.00
2019-01-20T19:53:13.440Z,85.20
2019-01-20T19:55:42.814Z,85.20
2019-01-20T19:58:12.377Z,85.70
2019-01-20T20:00:41.584Z,86.00
2019-01-20T20:03:11.828Z,85.90
2019-01-20T20:05:42.356Z,85.50
2019-01-20T20:08:11.647Z,85.10
2019-01-20T20:10:40.887Z,84.70
2019-01-20T20:13:10.089Z,85.20
2019-01-20T20:15:39.436Z,85.70
2019-01-20T20:18:08.686Z,85.50
2019-01-20T20:20:37.940Z,85.90
2019-01-20T20:23:07.187Z,85.80
2019-01-20T20:25:36.471Z,85.60
2019-01-20T20:28:05.966Z,85.90
2019-01-20T20:30:37.021Z,85.90
2019-01-20T20:33:06.769Z,85.60
2019-01-20T20:35:36.078Z,85.50
2019-01-20T20:38:05.357Z,86.40
2019-01-20T20:40:34.675Z,87.80
2019-01-20T20:43:03.909Z,88.90
2019-01-20T20:45:33.754Z,89.40
2019-01-20T20:48:03.031Z,90.00
2019-01-20T20:50:32.350Z,90.00
2019-01-20T20:53:01.617Z,90.20
2019-01-20T20:55:31.188Z,90.30
2019-01-20T20:58:00.591Z,90.30
2019-01-20T21:00:36.205Z,90.50
2019-01-20T21:03:09.508Z,90.60
2019-01-20T21:05:38.908Z,90.90
2019-01-20T21:08:13.484Z,91.10
2019-01-20T21:10:43.606Z,91.10
2019-01-20T21:13:14.884Z,91.20
2019-01-20T21:15:44.244Z,91.20
2019-01-20T21:18:13.603Z,91.40
2019-01-20T21:20:43.322Z,91.50
2019-01-20T21:23:12.762Z,91.40
2019-01-20T21:25:42.095Z,91.50
2019-01-20T21:28:11.461Z,91.50
2019-01-20T21:30:41.861Z,91.60
2019-01-20T21:33:11.086Z,91.60
2019-01-20T21:35:40.331Z,91.60
2019-01-20T21:38:09.533Z,91.50
2019-01-20T21:40:39.259Z,91.60
2019-01-20T21:43:08.568Z,91.70
2019-01-20T21:45:38.210Z,91.80
2019-01-20T21:48:07.539Z,91.80
2019-01-20T21:50:36.739Z,91.80
2019-01-20T21:57:07.180Z,91.70
2019-01-20T21:59:36.520Z,91.70
2019-01-20T22:02:05.696Z,91.60
2019-01-20T22:04:35.670Z,91.90
2019-01-20T22:07:04.902Z,92.00
2019-01-20T22:09:34.084Z,92.00
2019-01-20T22:12:03.297Z,92.10
2019-01-20T22:14:33.143Z,92.00
2019-01-20T22:17:02.315Z,92.10
2019-01-20T22:19:35.790Z,91.90
2019-01-20T22:22:08.490Z,92.00
2019-01-20T22:24:37.724Z,91.80
2019-01-20T22:27:06.939Z,91.60
2019-01-20T22:29:37.127Z,91.50
2019-01-20T22:32:06.894Z,91.40
2019-01-20T22:34:36.071Z,91.40
2019-01-20T22:37:08.850Z,91.40
2019-01-20T22:39:38.031Z,91.20
2019-01-20T22:42:12.261Z,91.30
2019-01-20T22:44:41.404Z,91.20
2019-01-20T22:47:10.618Z,91.30
2019-01-20T22:49:42.886Z,91.40
2019-01-20T22:52:12.045Z,91.40
2019-01-20T22:54:41.269Z,91.40
2019-01-20T22:57:10.492Z,91.30
2019-01-20T22:59:39.665Z,91.30
2019-01-20T23:02:08.833Z,91.20
2019-01-20T23:04:38.465Z,91.20
2019-01-20T23:07:07.707Z,91.20
2019-01-20T23:09:37.002Z,91.20
2019-01-20T23:12:06.170Z,91.10
2019-01-20T23:14:35.346Z,91.10
2019-01-20T23:17:07.913Z,91.10
2019-01-20T23:19:35.366Z,91.10
2019-01-20T23:22:04.531Z,91.10
2019-01-20T23:24:34.019Z,91.10
2019-01-20T23:27:03.124Z,91.10
2019-01-20T23:29:32.256Z,91.20
2019-01-20T23:32:01.447Z,91.20
2019-01-20T23:34:30.613Z,91.10
2019-01-20T23:36:59.729Z,91.10
2019-01-20T23:39:28.896Z,91.10
2019-01-20T23:41:58.076Z,91.00
2019-01-20T23:44:28.788Z,91.10
2019-01-20T23:46:58.544Z,91.00
2019-01-20T23:49:27.724Z,91.00
2019-01-20T23:51:56.992Z,91.00
2019-01-20T23:54:26.213Z,91.10
2019-01-20T23:56:55.366Z,91.00
2019-01-20T23:59:24.543Z,91.00
